| time (UTC) | temp F | wind direction | speed knots | gust knots | rain 1hr in | rain 24hr in | rain mn in | humidity % | barometer mb |
| 20260904041630 | 87 | 125 | 7.0 | 14.8 | 0.00 | 0.00 | 0.00 | 45 | 1002.3 |
| 20260904033022 | 87 | 138 | 5.2 | 10.4 | 0.00 | 0.00 | 0.00 | 43 | 1002.2 |
| 20260904031520 | 87 | 131 | 4.3 | 8.7 | 0.00 | 0.00 | 0.00 | 42 | 1002.0 |
| 20260904030120 | 87 | 103 | 3.5 | 7.8 | 0.00 | 0.00 | 0.00 | 42 | 1001.8 |
| 20260904024552 | 87 | 111 | 4.3 | 9.6 | 0.00 | 0.00 | 0.00 | 41 | 1001.6 |
| 20260904023054 | 89 | 159 | 5.2 | 13.0 | 0.00 | 0.00 | 0.00 | 39 | 1001.1 |
| 20260904021539 | 91 | 180 | 6.1 | 13.0 | 0.00 | 0.00 | 0.00 | 37 | 1000.6 |
| 20260904020008 | 89 | 194 | 7.0 | 13.9 | 0.00 | 0.00 | 0.00 | 39 | 1000.5 |
| 20260904014507 | 87 | 175 | 3.5 | 9.6 | 0.00 | 0.00 | 0.00 | 41 | 1000.9 |
| 20260904013007 | 87 | 213 | 3.5 | 12.2 | 0.00 | 0.00 | 0.00 | 44 | 1000.9 |
| 20260904011505 | 85 | 185 | 4.3 | 10.4 | 0.00 | 0.00 | 0.00 | 48 | 1000.9 |
| 20260904010006 | 85 | 153 | 5.2 | 13.0 | 0.00 | 0.00 | 0.00 | 49 | 1001.0 |
| 20260904004505 | 87 | 240 | 7.0 | 13.9 | 0.00 | 0.00 | 0.00 | 44 | 1001.2 |
| 20260904003005 | 94 | 178 | 4.3 | 9.6 | 0.00 | 0.00 | 0.00 | 36 | 1000.5 |
| 20260904001504 | 95 | 113 | 4.3 | 9.6 | 0.00 | 0.00 | 0.00 | 35 | 1000.3 |
| 20260904000005 | 95 | 117 | 3.5 | 8.7 | 0.00 | 0.00 | 0.00 | 34 | 1000.0 |
| 20260903234508 | 96 | 96 | 3.5 | 8.7 | 0.00 | 0.00 | 0.00 | 34 | 999.9 |
| 20260903233003 | 96 | 124 | 4.3 | 7.8 | 0.00 | 0.00 | 0.00 | 33 | 999.9 |
| 20260903231502 | 96 | 149 | 3.5 | 8.7 | 0.00 | 0.00 | 0.00 | 32 | 999.7 |
| 20260903230008 | 97 | 112 | 4.3 | 11.3 | 0.00 | 0.00 | 0.00 | 31 | 999.7 |
| 20260903224600 | 97 | 109 | 4.3 | 9.6 | 0.00 | 0.00 | 0.00 | 30 | 999.6 |
| 20260903223100 | 97 | 111 | 4.3 | 9.6 | 0.00 | 0.00 | 0.00 | 30 | 999.3 |
| 20260903221601 | 98 | 167 | 3.5 | 11.3 | 0.00 | 0.00 | 0.00 | 30 | 999.5 |
| 20260903220120 | 99 | 142 | 4.3 | 12.2 | 0.00 | 0.00 | 0.00 | 29 | 999.4 |
| 20260903214556 | 101 | 161 | 4.3 | 10.4 | 0.00 | 0.00 | 0.00 | 29 | 999.5 |
| 20260903213053 | 101 | 142 | 3.5 | 8.7 | 0.00 | 0.00 | 0.00 | 28 | 999.7 |
| 20260903211556 | 100 | 133 | 5.2 | 13.0 | 0.00 | 0.00 | 0.00 | 29 | 999.8 |
| 20260903210056 | 100 | 193 | 5.2 | 13.9 | 0.00 | 0.00 | 0.00 | 29 | 1000.0 |
| 20260903204549 | 100 | 111 | 7.0 | 10.4 | 0.00 | 0.00 | 0.00 | 29 | 1000.2 |
| 20260903203045 | 100 | 103 | 5.2 | 10.4 | 0.00 | 0.00 | 0.00 | 30 | 1000.4 |
| 20260903201545 | 100 | 144 | 3.5 | 12.2 | 0.00 | 0.00 | 0.00 | 31 | 1000.6 |
| 20260903200041 | 99 | 113 | 6.1 | 11.3 | 0.00 | 0.00 | 0.00 | 32 | 1000.8 |
| 20260903194537 | 99 | 161 | 7.0 | 13.9 | 0.00 | 0.00 | 0.00 | 34 | 1000.9 |
| 20260903193035 | 98 | 107 | 6.1 | 14.8 | 0.00 | 0.00 | 0.00 | 35 | 1001.2 |
| 20260903191546 | 97 | 180 | 5.2 | 18.2 | 0.00 | 0.00 | 0.00 | 37 | 1001.5 |
| 20260903190029 | 97 | 210 | 7.0 | 13.0 | 0.00 | 0.00 | 0.00 | 36 | 1001.7 |
| 20260903184540 | 97 | 176 | 4.3 | 8.7 | 0.00 | 0.00 | 0.00 | 35 | 1002.0 |
| 20260903183023 | 96 | 130 | 6.1 | 13.0 | 0.00 | 0.00 | 0.00 | 36 | 1002.2 |
| 20260903181521 | 96 | 154 | 6.1 | 12.2 | 0.00 | 0.00 | 0.00 | 36 | 1002.5 |
| 20260903180016 | 95 | 251 | 5.2 | 10.4 | 0.00 | 0.00 | 0.00 | 37 | 1002.8 |
| 20260903174512 | 93 | 230 | 4.3 | 10.4 | 0.00 | 0.00 | 0.00 | 40 | 1002.9 |
| 20260903173016 | 92 | 164 | 6.1 | 13.0 | 0.00 | 0.00 | 0.00 | 39 | 1003.0 |